sensor_id;sensor_type;location;lat;lon;timestamp;P1;P4;P2;P0;N10;N4;N25;N1;N05;TS
44530;SPS30;30240;47.418;0.700;2023-08-06T00:00:04;3.1087685;;2.5575047;;;;;;;
44530;SPS30;30240;47.418;0.700;2023-08-06T00:02:30;1.7535667;;1.5041555;;;;;;;
44530;SPS30;30240;47.418;0.700;2023-08-06T00:04:54;1.7535667;;1.5041555;;;;;;;
44530;SPS30;30240;47.418;0.700;2023-08-06T00:07:18;2.292962;;1.9852144;;;;;;;
44530;SPS30;30240;47.418;0.700;2023-08-06T00:09:44;2.0641956;;1.7933736;;;;;;;
44530;SPS30;30240;47.418;0.700;2023-08-06T00:12:08;2.2198372;;1.921757;;;;;;;
44530;SPS30;30240;47.418;0.700;2023-08-06T00:14:33;2.1498206;;1.8500289;;;;;;;
44530;SPS30;30240;47.418;0.700;2023-08-06T00:16:59;2.1498206;;1.8500289;;;;;;;
44530;SPS30;30240;47.418;0.700;2023-08-06T00:19:24;2.1896405;;1.8681899;;;;;;;
44530;SPS30;30240;47.418;0.700;2023-08-06T00:21:48;1.2900312;;1.0950391;;;;;;;
44530;SPS30;30240;47.418;0.700;2023-08-06T00:24:14;1.5984561;;1.3629144;;;;;;;
44530;SPS30;30240;47.418;0.700;2023-08-06T00:26:38;2.2220614;;1.884048;;;;;;;
44530;SPS30;30240;47.418;0.700;2023-08-06T00:29:04;2.2220614;;1.884048;;;;;;;
44530;SPS30;30240;47.418;0.700;2023-08-06T00:31:28;2.3475106;;1.9475235;;;;;;;
44530;SPS30;30240;47.418;0.700;2023-08-06T00:33:54;2.840343;;2.2850926;;;;;;;
44530;SPS30;30240;47.418;0.700;2023-08-06T00:36:18;2.9340656;;2.3753705;;;;;;;
44530;SPS30;30240;47.418;0.700;2023-08-06T00:38:43;2.2553875;;1.8509096;;;;;;;
44530;SPS30;30240;47.418;0.700;2023-08-06T00:41:08;2.2553875;;1.8509096;;;;;;;
44530;SPS30;30240;47.418;0.700;2023-08-06T00:43:34;3.259725;;2.6304774;;;;;;;
44530;SPS30;30240;47.418;0.700;2023-08-06T00:45:59;2.4892113;;2.0812106;;;;;;;
44530;SPS30;30240;47.418;0.700;2023-08-06T00:48:24;3.2705293;;2.7186196;;;;;;;
44530;SPS30;30240;47.418;0.700;2023-08-06T00:50:48;2.552056;;2.1421468;;;;;;;
44530;SPS30;30240;47.418;0.700;2023-08-06T00:53:13;2.552056;;2.1421468;;;;;;;
44530;SPS30;30240;47.418;0.700;2023-08-06T00:55:38;3.2436798;;2.6627777;;;;;;;
44530;SPS30;30240;47.418;0.700;2023-08-06T00:58:03;2.4017224;;1.9879748;;;;;;;
44530;SPS30;30240;47.418;0.700;2023-08-06T01:00:28;2.073866;;1.7063746;;;;;;;
44530;SPS30;30240;47.418;0.700;2023-08-06T01:02:53;3.4421134;;2.8175452;;;;;;;
44530;SPS30;30240;47.418;0.700;2023-08-06T01:05:19;3.4421134;;2.8175452;;;;;;;
44530;SPS30;30240;47.418;0.700;2023-08-06T01:07:45;2.962387;;2.4434423;;;;;;;
44530;SPS30;30240;47.418;0.700;2023-08-06T01:10:13;2.3892376;;1.9524206;;;;;;;
44530;SPS30;30240;47.418;0.700;2023-08-06T01:10:19;2.3892376;;1.9524206;;;;;;;
44530;SPS30;30240;47.418;0.700;2023-08-06T01:12:34;3.1612828;;2.6145623;;;;;;;
44530;SPS30;30240;47.418;0.700;2023-08-06T01:15:00;2.358257;;1.9015464;;;;;;;
44530;SPS30;30240;47.418;0.700;2023-08-06T01:15:04;2.358257;;1.9015464;;;;;;;
44530;SPS30;30240;47.418;0.700;2023-08-06T01:17:23;2.358257;;1.9015464;;;;;;;
44530;SPS30;30240;47.418;0.700;2023-08-06T01:19:48;3.2231221;;2.5904896;;;;;;;
44530;SPS30;30240;47.418;0.700;2023-08-06T01:22:14;3.427751;;2.796349;;;;;;;
44530;SPS30;30240;47.418;0.700;2023-08-06T01:24:39;3.0111635;;2.4514902;;;;;;;
44530;SPS30;30240;47.418;0.700;2023-08-06T01:27:05;3.434434;;2.7409263;;;;;;;
44530;SPS30;30240;47.418;0.700;2023-08-06T01:29:30;3.434434;;2.7409263;;;;;;;
44530;SPS30;30240;47.418;0.700;2023-08-06T01:31:53;4.29442;;3.4452388;;;;;;;
44530;SPS30;30240;47.418;0.700;2023-08-06T01:34:20;3.490864;;2.8541129;;;;;;;
44530;SPS30;30240;47.418;0.700;2023-08-06T01:36:43;3.312323;;2.736272;;;;;;;
44530;SPS30;30240;47.418;0.700;2023-08-06T01:39:09;2.5907543;;2.1130233;;;;;;;
44530;SPS30;30240;47.418;0.700;2023-08-06T01:41:33;3.5937092;;2.9729567;;;;;;;
44530;SPS30;30240;47.418;0.700;2023-08-06T01:43:59;3.5937092;;2.9729567;;;;;;;
44530;SPS30;30240;47.418;0.700;2023-08-06T01:46:24;3.0563815;;2.5102668;;;;;;;
44530;SPS30;30240;47.418;0.700;2023-08-06T01:48:48;2.9324105;;2.369275;;;;;;;
44530;SPS30;30240;47.418;0.700;2023-08-06T01:51:13;2.7300994;;2.2299442;;;;;;;
44530;SPS30;30240;47.418;0.700;2023-08-06T01:53:38;3.1687331;;2.573772;;;;;;;
44530;SPS30;30240;47.418;0.700;2023-08-06T01:56:03;3.1687331;;2.573772;;;;;;;
44530;SPS30;30240;47.418;0.700;2023-08-06T01:58:28;3.308085;;2.670779;;;;;;;
44530;SPS30;30240;47.418;0.700;2023-08-06T02:00:54;4.082392;;3.3011556;;;;;;;
44530;SPS30;30240;47.418;0.700;2023-08-06T02:03:18;3.7302942;;2.9441423;;;;;;;
44530;SPS30;30240;47.418;0.700;2023-08-06T02:05:43;3.5879636;;2.9503057;;;;;;;
44530;SPS30;30240;47.418;0.700;2023-08-06T02:08:08;3.5879636;;2.9503057;;;;;;;
44530;SPS30;30240;47.418;0.700;2023-08-06T02:10:33;3.777666;;3.088799;;;;;;;
44530;SPS30;30240;47.418;0.700;2023-08-06T02:12:58;3.9255686;;3.3626437;;;;;;;
44530;SPS30;30240;47.418;0.700;2023-08-06T02:15:23;3.0894322;;2.7117937;;;;;;;
44530;SPS30;30240;47.418;0.700;2023-08-06T02:17:48;3.4333975;;2.9672415;;;;;;;
44530;SPS30;30240;47.418;0.700;2023-08-06T02:20:14;3.4333975;;2.9672415;;;;;;;
44530;SPS30;30240;47.418;0.700;2023-08-06T02:22:39;3.2053893;;2.67505;;;;;;;
44530;SPS30;30240;47.418;0.700;2023-08-06T02:25:04;3.759341;;3.1290598;;;;;;;
44530;SPS30;30240;47.418;0.700;2023-08-06T02:27:29;3.1702452;;2.5992699;;;;;;;
44530;SPS30;30240;47.418;0.700;2023-08-06T02:29:54;3.4170039;;2.8274164;;;;;;;
44530;SPS30;30240;47.418;0.700;2023-08-06T02:32:18;3.4170039;;2.8274164;;;;;;;
44530;SPS30;30240;47.418;0.700;2023-08-06T02:34:43;4.1241503;;3.4114728;;;;;;;
44530;SPS30;30240;47.418;0.700;2023-08-06T02:37:08;3.8591974;;3.1624281;;;;;;;
44530;SPS30;30240;47.418;0.700;2023-08-06T02:39:36;3.5951252;;2.8853538;;;;;;;
44530;SPS30;30240;47.418;0.700;2023-08-06T02:42:01;3.374752;;2.7158341;;;;;;;
44530;SPS30;30240;47.418;0.700;2023-08-06T02:44:26;3.374752;;2.7158341;;;;;;;
44530;SPS30;30240;47.418;0.700;2023-08-06T02:46:49;3.5054095;;2.9256911;;;;;;;
44530;SPS30;30240;47.418;0.700;2023-08-06T02:49:15;3.8210397;;3.1760764;;;;;;;
44530;SPS30;30240;47.418;0.700;2023-08-06T02:51:39;3.5266683;;2.979873;;;;;;;
44530;SPS30;30240;47.418;0.700;2023-08-06T02:54:09;3.3423278;;2.759292;;;;;;;
44530;SPS30;30240;47.418;0.700;2023-08-06T02:56:29;3.3423278;;2.759292;;;;;;;
44530;SPS30;30240;47.418;0.700;2023-08-06T02:58:54;3.6527433;;3.019801;;;;;;;
44530;SPS30;30240;47.418;0.700;2023-08-06T03:01:18;2.8809607;;2.416897;;;;;;;
44530;SPS30;30240;47.418;0.700;2023-08-06T03:03:43;2.977128;;2.4845276;;;;;;;
44530;SPS30;30240;47.418;0.700;2023-08-06T03:06:09;3.434;;2.879041;;;;;;;
44530;SPS30;30240;47.418;0.700;2023-08-06T03:08:34;3.1686523;;2.6583846;;;;;;;
44530;SPS30;30240;47.418;0.700;2023-08-06T03:10:58;3.1686523;;2.6583846;;;;;;;
44530;SPS30;30240;47.418;0.700;2023-08-06T03:13:24;3.3970213;;2.8703368;;;;;;;
44530;SPS30;30240;47.418;0.700;2023-08-06T03:15:52;2.6479876;;2.221355;;;;;;;
44530;SPS30;30240;47.418;0.700;2023-08-06T03:18:14;3.1190538;;2.5650024;;;;;;;
44530;SPS30;30240;47.418;0.700;2023-08-06T03:20:39;3.3601053;;2.7826283;;;;;;;
44530;SPS30;30240;47.418;0.700;2023-08-06T03:23:04;3.3601053;;2.7826283;;;;;;;
44530;SPS30;30240;47.418;0.700;2023-08-06T03:25:29;3.1591592;;2.6304045;;;;;;;
44530;SPS30;30240;47.418;0.700;2023-08-06T03:27:54;3.6278327;;3.005419;;;;;;;
44530;SPS30;30240;47.418;0.700;2023-08-06T03:30:19;3.086867;;2.595668;;;;;;;
44530;SPS30;30240;47.418;0.700;2023-08-06T03:32:44;4.05213;;3.3486893;;;;;;;
44530;SPS30;30240;47.418;0.700;2023-08-06T03:35:09;4.05213;;3.3486893;;;;;;;
44530;SPS30;30240;47.418;0.700;2023-08-06T03:37:34;3.7092574;;3.04461;;;;;;;
44530;SPS30;30240;47.418;0.700;2023-08-06T03:39:59;3.5464432;;2.868709;;;;;;;
44530;SPS30;30240;47.418;0.700;2023-08-06T03:42:24;2.79489;;2.3118215;;;;;;;
44530;SPS30;30240;47.418;0.700;2023-08-06T03:44:55;3.5611658;;2.9573393;;;;;;;
44530;SPS30;30240;47.418;0.700;2023-08-06T03:49:46;3.755527;;3.1384852;;;;;;;
44530;SPS30;30240;47.418;0.700;2023-08-06T03:52:04;3.0360894;;2.437438;;;;;;;
44530;SPS30;30240;47.418;0.700;2023-08-06T03:54:29;3.539254;;2.9118598;;;;;;;
44530;SPS30;30240;47.418;0.700;2023-08-06T03:56:54;3.7426648;;3.0508192;;;;;;;
44530;SPS30;30240;47.418;0.700;2023-08-06T03:59:19;3.7426648;;3.0508192;;;;;;;
44530;SPS30;30240;47.418;0.700;2023-08-06T04:01:44;3.7750025;;3.1435227;;;;;;;
44530;SPS30;30240;47.418;0.700;2023-08-06T04:04:18;3.7856138;;3.1039119;;;;;;;
44530;SPS30;30240;47.418;0.700;2023-08-06T04:06:40;3.2110326;;2.6035128;;;;;;;
44530;SPS30;30240;47.418;0.700;2023-08-06T04:09:01;3.6904984;;2.9963593;;;;;;;
44530;SPS30;30240;47.418;0.700;2023-08-06T04:11:24;3.6904984;;2.9963593;;;;;;;
44530;SPS30;30240;47.418;0.700;2023-08-06T04:13:56;3.6981318;;3.0847123;;;;;;;
44530;SPS30;30240;47.418;0.700;2023-08-06T04:16:17;3.6576135;;3.0439513;;;;;;;
44530;SPS30;30240;47.418;0.700;2023-08-06T04:18:41;3.2036188;;2.71722;;;;;;;
44530;SPS30;30240;47.418;0.700;2023-08-06T04:21:05;3.701262;;3.0824294;;;;;;;
44530;SPS30;30240;47.418;0.700;2023-08-06T04:23:36;3.73606;;3.0833795;;;;;;;
44530;SPS30;30240;47.418;0.700;2023-08-06T04:25:56;3.73606;;3.0833795;;;;;;;
44530;SPS30;30240;47.418;0.700;2023-08-06T04:28:19;3.6196525;;3.0137079;;;;;;;
44530;SPS30;30240;47.418;0.700;2023-08-06T04:30:43;3.8925552;;3.1877148;;;;;;;
44530;SPS30;30240;47.418;0.700;2023-08-06T04:33:09;3.488814;;2.9370162;;;;;;;
44530;SPS30;30240;47.418;0.700;2023-08-06T04:35:34;3.488814;;2.9370162;;;;;;;
44530;SPS30;30240;47.418;0.700;2023-08-06T04:37:58;3.5542874;;2.920805;;;;;;;
44530;SPS30;30240;47.418;0.700;2023-08-06T04:40:24;3.1591573;;2.690607;;;;;;;
44530;SPS30;30240;47.418;0.700;2023-08-06T04:42:49;2.999596;;2.52532;;;;;;;
44530;SPS30;30240;47.418;0.700;2023-08-06T04:45:13;3.469998;;2.8851478;;;;;;;
44530;SPS30;30240;47.418;0.700;2023-08-06T04:47:38;2.9237711;;2.4312458;;;;;;;
44530;SPS30;30240;47.418;0.700;2023-08-06T04:50:04;2.9237711;;2.4312458;;;;;;;
44530;SPS30;30240;47.418;0.700;2023-08-06T04:52:29;3.8235583;;3.1698759;;;;;;;
44530;SPS30;30240;47.418;0.700;2023-08-06T04:54:53;3.247966;;2.6911798;;;;;;;
44530;SPS30;30240;47.418;0.700;2023-08-06T04:57:19;3.064764;;2.556482;;;;;;;
44530;SPS30;30240;47.418;0.700;2023-08-06T04:59:43;3.4630377;;2.909478;;;;;;;
44530;SPS30;30240;47.418;0.700;2023-08-06T05:02:09;3.4630377;;2.909478;;;;;;;
44530;SPS30;30240;47.418;0.700;2023-08-06T05:04:33;3.3960168;;2.896495;;;;;;;
44530;SPS30;30240;47.418;0.700;2023-08-06T05:06:59;2.622815;;2.189797;;;;;;;
44530;SPS30;30240;47.418;0.700;2023-08-06T05:09:24;2.798922;;2.4368677;;;;;;;
44530;SPS30;30240;47.418;0.700;2023-08-06T05:11:49;3.4094913;;2.8645322;;;;;;;
44530;SPS30;30240;47.418;0.700;2023-08-06T05:14:14;3.4094913;;2.8645322;;;;;;;
44530;SPS30;30240;47.418;0.700;2023-08-06T05:16:38;2.8116674;;2.312208;;;;;;;
44530;SPS30;30240;47.418;0.700;2023-08-06T05:19:04;2.8859713;;2.4348755;;;;;;;
44530;SPS30;30240;47.418;0.700;2023-08-06T05:21:29;2.751824;;2.2674716;;;;;;;
44530;SPS30;30240;47.418;0.700;2023-08-06T05:23:54;3.3897321;;2.8911078;;;;;;;
44530;SPS30;30240;47.418;0.700;2023-08-06T05:26:18;3.3897321;;2.8911078;;;;;;;
44530;SPS30;30240;47.418;0.700;2023-08-06T05:28:43;2.4094782;;2.0710943;;;;;;;
44530;SPS30;30240;47.418;0.700;2023-08-06T05:31:09;2.576866;;2.1749413;;;;;;;
44530;SPS30;30240;47.418;0.700;2023-08-06T05:33:33;2.931814;;2.464957;;;;;;;
44530;SPS30;30240;47.418;0.700;2023-08-06T05:35:59;2.6917453;;2.2242827;;;;;;;
44530;SPS30;30240;47.418;0.700;2023-08-06T05:38:24;2.6917453;;2.2242827;;;;;;;
44530;SPS30;30240;47.418;0.700;2023-08-06T05:40:49;3.7160423;;3.0603952;;;;;;;
44530;SPS30;30240;47.418;0.700;2023-08-06T05:43:16;3.4240842;;2.7450106;;;;;;;
44530;SPS30;30240;47.418;0.700;2023-08-06T05:45:39;3.061507;;2.4750628;;;;;;;
44530;SPS30;30240;47.418;0.700;2023-08-06T05:48:03;2.3981307;;1.9565423;;;;;;;
44530;SPS30;30240;47.418;0.700;2023-08-06T05:50:28;2.3981307;;1.9565423;;;;;;;
44530;SPS30;30240;47.418;0.700;2023-08-06T05:52:54;3.079196;;2.5212746;;;;;;;
44530;SPS30;30240;47.418;0.700;2023-08-06T05:55:19;3.1580782;;2.60331;;;;;;;
44530;SPS30;30240;47.418;0.700;2023-08-06T05:57:47;2.619633;;2.1576016;;;;;;;
44530;SPS30;30240;47.418;0.700;2023-08-06T06:00:09;2.1250982;;1.7789315;;;;;;;
44530;SPS30;30240;47.418;0.700;2023-08-06T06:02:34;2.1250982;;1.7789315;;;;;;;
44530;SPS30;30240;47.418;0.700;2023-08-06T06:04:58;2.7912426;;2.379511;;;;;;;
44530;SPS30;30240;47.418;0.700;2023-08-06T06:07:24;2.447765;;2.1017714;;;;;;;
44530;SPS30;30240;47.418;0.700;2023-08-06T06:09:48;2.0714414;;1.7838969;;;;;;;
44530;SPS30;30240;47.418;0.700;2023-08-06T06:12:13;2.4073226;;2.013125;;;;;;;
44530;SPS30;30240;47.418;0.700;2023-08-06T06:14:39;3.2393541;;2.6789324;;;;;;;
44530;SPS30;30240;47.418;0.700;2023-08-06T06:17:03;3.2393541;;2.6789324;;;;;;;
44530;SPS30;30240;47.418;0.700;2023-08-06T06:19:29;3.2164662;;2.6816015;;;;;;;
44530;SPS30;30240;47.418;0.700;2023-08-06T06:21:53;2.3743448;;2.0291283;;;;;;;
44530;SPS30;30240;47.418;0.700;2023-08-06T06:24:18;2.7342486;;2.320623;;;;;;;
44530;SPS30;30240;47.418;0.700;2023-08-06T06:26:43;2.869142;;2.4254735;;;;;;;
44530;SPS30;30240;47.418;0.700;2023-08-06T06:29:09;2.869142;;2.4254735;;;;;;;
44530;SPS30;30240;47.418;0.700;2023-08-06T06:31:34;2.4193301;;2.0142422;;;;;;;
44530;SPS30;30240;47.418;0.700;2023-08-06T06:34:05;2.6362596;;2.1661043;;;;;;;
44530;SPS30;30240;47.418;0.700;2023-08-06T06:36:26;3.7060235;;3.023587;;;;;;;
44530;SPS30;30240;47.418;0.700;2023-08-06T06:38:57;2.668391;;2.1954868;;;;;;;
44530;SPS30;30240;47.418;0.700;2023-08-06T06:41:19;2.668391;;2.1954868;;;;;;;
44530;SPS30;30240;47.418;0.700;2023-08-06T06:43:47;3.029319;;2.4714897;;;;;;;
44530;SPS30;30240;47.418;0.700;2023-08-06T06:46:04;2.5532131;;2.095156;;;;;;;
44530;SPS30;30240;47.418;0.700;2023-08-06T06:48:31;2.3005424;;1.9076945;;;;;;;
44530;SPS30;30240;47.418;0.700;2023-08-06T06:50:54;2.4840934;;2.032553;;;;;;;
44530;SPS30;30240;47.418;0.700;2023-08-06T06:53:20;2.4840934;;2.032553;;;;;;;
44530;SPS30;30240;47.418;0.700;2023-08-06T06:55:44;2.9578068;;2.5258703;;;;;;;
44530;SPS30;30240;47.418;0.700;2023-08-06T06:58:13;3.3916278;;2.904832;;;;;;;
44530;SPS30;30240;47.418;0.700;2023-08-06T07:00:35;2.5737433;;2.212957;;;;;;;
44530;SPS30;30240;47.418;0.700;2023-08-06T07:02:58;1.9699353;;1.6732777;;;;;;;
44530;SPS30;30240;47.418;0.700;2023-08-06T07:05:23;1.9699353;;1.6732777;;;;;;;
44530;SPS30;30240;47.418;0.700;2023-08-06T07:07:48;2.6572337;;2.2436767;;;;;;;
44530;SPS30;30240;47.418;0.700;2023-08-06T07:10:14;2.8242295;;2.4028025;;;;;;;
44530;SPS30;30240;47.418;0.700;2023-08-06T07:12:38;2.6059039;;2.1898468;;;;;;;
44530;SPS30;30240;47.418;0.700;2023-08-06T07:15:05;2.0005577;;1.7126712;;;;;;;
44530;SPS30;30240;47.418;0.700;2023-08-06T07:17:28;2.0005577;;1.7126712;;;;;;;
44530;SPS30;30240;47.418;0.700;2023-08-06T07:19:54;2.6038065;;2.202544;;;;;;;
44530;SPS30;30240;47.418;0.700;2023-08-06T07:24:44;2.0081582;;1.7303414;;;;;;;
44530;SPS30;30240;47.418;0.700;2023-08-06T07:27:08;2.4238927;;2.0452223;;;;;;;
44530;SPS30;30240;47.418;0.700;2023-08-06T07:29:34;2.4238927;;2.0452223;;;;;;;
44530;SPS30;30240;47.418;0.700;2023-08-06T07:31:58;2.0966623;;1.7643977;;;;;;;
44530;SPS30;30240;47.418;0.700;2023-08-06T07:34:24;2.990047;;2.519771;;;;;;;
44530;SPS30;30240;47.418;0.700;2023-08-06T07:36:48;2.3259792;;1.9814844;;;;;;;
44530;SPS30;30240;47.418;0.700;2023-08-06T07:39:20;2.3170109;;2.0003753;;;;;;;
44530;SPS30;30240;47.418;0.700;2023-08-06T07:41:46;2.295694;;1.9862028;;;;;;;
44530;SPS30;30240;47.418;0.700;2023-08-06T07:44:04;2.295694;;1.9862028;;;;;;;
44530;SPS30;30240;47.418;0.700;2023-08-06T07:46:28;2.2825654;;1.9919341;;;;;;;
44530;SPS30;30240;47.418;0.700;2023-08-06T07:48:53;2.7261834;;2.3651483;;;;;;;
44530;SPS30;30240;47.418;0.700;2023-08-06T07:51:19;2.339698;;2.0724223;;;;;;;
44530;SPS30;30240;47.418;0.700;2023-08-06T07:53:44;2.5844884;;2.2861145;;;;;;;
44530;SPS30;30240;47.418;0.700;2023-08-06T07:56:09;2.5844884;;2.2861145;;;;;;;
44530;SPS30;30240;47.418;0.700;2023-08-06T07:58:33;2.275132;;1.9996907;;;;;;;
44530;SPS30;30240;47.418;0.700;2023-08-06T08:00:58;2.1303787;;1.907021;;;;;;;
44530;SPS30;30240;47.418;0.700;2023-08-06T08:03:23;2.4604204;;2.2284102;;;;;;;
44530;SPS30;30240;47.418;0.700;2023-08-06T08:05:49;2.010816;;1.8302112;;;;;;;
44530;SPS30;30240;47.418;0.700;2023-08-06T08:08:13;2.010816;;1.8302112;;;;;;;
44530;SPS30;30240;47.418;0.700;2023-08-06T08:10:39;2.2734601;;2.0440333;;;;;;;
44530;SPS30;30240;47.418;0.700;2023-08-06T08:13:04;2.0520704;;1.8513315;;;;;;;
44530;SPS30;30240;47.418;0.700;2023-08-06T08:15:29;1.7909399;;1.6264819;;;;;;;
44530;SPS30;30240;47.418;0.700;2023-08-06T08:17:55;2.319985;;2.0869873;;;;;;;
44530;SPS30;30240;47.418;0.700;2023-08-06T08:20:19;2.319985;;2.0869873;;;;;;;
44530;SPS30;30240;47.418;0.700;2023-08-06T08:22:43;2.5781739;;2.30131;;;;;;;
44530;SPS30;30240;47.418;0.700;2023-08-06T08:25:09;1.899719;;1.6776565;;;;;;;
44530;SPS30;30240;47.418;0.700;2023-08-06T08:27:33;1.741069;;1.5465952;;;;;;;
44530;SPS30;30240;47.418;0.700;2023-08-06T08:29:58;2.2366645;;2.0162039;;;;;;;
44530;SPS30;30240;47.418;0.700;2023-08-06T08:32:23;2.2366645;;2.0162039;;;;;;;
44530;SPS30;30240;47.418;0.700;2023-08-06T08:34:48;2.0670943;;1.8439624;;;;;;;
44530;SPS30;30240;47.418;0.700;2023-08-06T08:37:14;1.5938184;;1.4261668;;;;;;;
44530;SPS30;30240;47.418;0.700;2023-08-06T08:39:39;2.0279593;;1.7947865;;;;;;;
44530;SPS30;30240;47.418;0.700;2023-08-06T08:42:05;2.1398838;;1.9108539;;;;;;;
44530;SPS30;30240;47.418;0.700;2023-08-06T08:44:29;2.1398838;;1.9108539;;;;;;;
44530;SPS30;30240;47.418;0.700;2023-08-06T08:46:53;1.2093244;;1.0841843;;;;;;;
44530;SPS30;30240;47.418;0.700;2023-08-06T08:49:19;2.2406974;;2.0238109;;;;;;;
44530;SPS30;30240;47.418;0.700;2023-08-06T08:51:43;2.002269;;1.7916322;;;;;;;
44530;SPS30;30240;47.418;0.700;2023-08-06T08:54:08;1.8635607;;1.6741107;;;;;;;
44530;SPS30;30240;47.418;0.700;2023-08-06T08:56:34;1.8635607;;1.6741107;;;;;;;
44530;SPS30;30240;47.418;0.700;2023-08-06T08:58:59;1.5928181;;1.4593542;;;;;;;
44530;SPS30;30240;47.418;0.700;2023-08-06T09:01:24;1.8899897;;1.7075964;;;;;;;
44530;SPS30;30240;47.418;0.700;2023-08-06T09:03:49;1.8836069;;1.7096784;;;;;;;
44530;SPS30;30240;47.418;0.700;2023-08-06T09:06:14;1.9393712;;1.7980207;;;;;;;
44530;SPS30;30240;47.418;0.700;2023-08-06T09:08:39;1.9393712;;1.7980207;;;;;;;
44530;SPS30;30240;47.418;0.700;2023-08-06T09:11:04;1.2121755;;1.1099409;;;;;;;
44530;SPS30;30240;47.418;0.700;2023-08-06T09:13:28;1.0888888;;1.0206394;;;;;;;
44530;SPS30;30240;47.418;0.700;2023-08-06T09:15:53;1.4893;;1.4125979;;;;;;;
44530;SPS30;30240;47.418;0.700;2023-08-06T09:18:25;1.3574052;;1.2815032;;;;;;;
44530;SPS30;30240;47.418;0.700;2023-08-06T09:20:44;1.7166594;;1.5960094;;;;;;;
44530;SPS30;30240;47.418;0.700;2023-08-06T09:23:09;1.7166594;;1.5960094;;;;;;;
44530;SPS30;30240;47.418;0.700;2023-08-06T09:25:33;1.4774193;;1.3646245;;;;;;;
44530;SPS30;30240;47.418;0.700;2023-08-06T09:27:59;1.3161896;;1.2100934;;;;;;;
44530;SPS30;30240;47.418;0.700;2023-08-06T09:30:31;1.8846127;;1.7481185;;;;;;;
44530;SPS30;30240;47.418;0.700;2023-08-06T09:32:49;1.3967259;;1.3027264;;;;;;;
44530;SPS30;30240;47.418;0.700;2023-08-06T09:35:15;1.3967259;;1.3027264;;;;;;;
44530;SPS30;30240;47.418;0.700;2023-08-06T09:37:39;1.2215301;;1.132952;;;;;;;
44530;SPS30;30240;47.418;0.700;2023-08-06T09:40:04;1.293317;;1.2204311;;;;;;;
44530;SPS30;30240;47.418;0.700;2023-08-06T09:40:24;1.293317;;1.2204311;;;;;;;
44530;SPS30;30240;47.418;0.700;2023-08-06T09:42:29;1.5442879;;1.4489851;;;;;;;
44530;SPS30;30240;47.418;0.700;2023-08-06T09:44:53;1.7423027;;1.6015294;;;;;;;
44530;SPS30;30240;47.418;0.700;2023-08-06T09:47:19;1.7423027;;1.6015294;;;;;;;
44530;SPS30;30240;47.418;0.700;2023-08-06T09:49:43;1.5156393;;1.3726915;;;;;;;
44530;SPS30;30240;47.418;0.700;2023-08-06T09:52:10;1.2301251;;1.1100504;;;;;;;
44530;SPS30;30240;47.418;0.700;2023-08-06T09:54:33;1.5610845;;1.4262171;;;;;;;
44530;SPS30;30240;47.418;0.700;2023-08-06T09:56:58;1.8264189;;1.6533127;;;;;;;
44530;SPS30;30240;47.418;0.700;2023-08-06T09:59:24;1.8264189;;1.6533127;;;;;;;
44530;SPS30;30240;47.418;0.700;2023-08-06T10:01:48;1.7655965;;1.6011906;;;;;;;
44530;SPS30;30240;47.418;0.700;2023-08-06T10:04:14;2.0852616;;1.8805445;;;;;;;
44530;SPS30;30240;47.418;0.700;2023-08-06T10:06:38;2.2686954;;2.0723765;;;;;;;
44530;SPS30;30240;47.418;0.700;2023-08-06T10:09:04;1.9846746;;1.7802973;;;;;;;
44530;SPS30;30240;47.418;0.700;2023-08-06T10:11:29;1.9846746;;1.7802973;;;;;;;
44530;SPS30;30240;47.418;0.700;2023-08-06T10:13:55;1.7382599;;1.5831798;;;;;;;
44530;SPS30;30240;47.418;0.700;2023-08-06T10:16:18;1.4479619;;1.3269557;;;;;;;
44530;SPS30;30240;47.418;0.700;2023-08-06T10:18:43;1.213367;;1.1207857;;;;;;;
44530;SPS30;30240;47.418;0.700;2023-08-06T10:21:08;1.3104311;;1.2179564;;;;;;;
44530;SPS30;30240;47.418;0.700;2023-08-06T10:23:34;1.3104311;;1.2179564;;;;;;;
44530;SPS30;30240;47.418;0.700;2023-08-06T10:25:58;1.6559639;;1.5368274;;;;;;;
44530;SPS30;30240;47.418;0.700;2023-08-06T10:28:24;1.6484339;;1.5459661;;;;;;;
44530;SPS30;30240;47.418;0.700;2023-08-06T10:28:33;1.6484339;;1.5459661;;;;;;;
44530;SPS30;30240;47.418;0.700;2023-08-06T10:30:49;1.5905184;;1.4641324;;;;;;;
44530;SPS30;30240;47.418;0.700;2023-08-06T10:33:14;1.1969093;;1.0974697;;;;;;;
44530;SPS30;30240;47.418;0.700;2023-08-06T10:35:40;1.1969093;;1.0974697;;;;;;;
44530;SPS30;30240;47.418;0.700;2023-08-06T10:38:07;1.5133592;;1.3880967;;;;;;;
44530;SPS30;30240;47.418;0.700;2023-08-06T10:40:32;1.7426759;;1.594585;;;;;;;
44530;SPS30;30240;47.418;0.700;2023-08-06T10:42:54;1.0908606;;1.0116231;;;;;;;
44530;SPS30;30240;47.418;0.700;2023-08-06T10:45:19;1.308598;;1.232777;;;;;;;
44530;SPS30;30240;47.418;0.700;2023-08-06T10:47:44;1.4123213;;1.3317013;;;;;;;
44530;SPS30;30240;47.418;0.700;2023-08-06T10:50:11;1.4123213;;1.3317013;;;;;;;
44530;SPS30;30240;47.418;0.700;2023-08-06T10:52:33;2.3522043;;2.2885962;;;;;;;
44530;SPS30;30240;47.418;0.700;2023-08-06T10:54:58;1.7636541;;1.7306527;;;;;;;
44530;SPS30;30240;47.418;0.700;2023-08-06T10:57:23;1.5090512;;1.4760423;;;;;;;
44530;SPS30;30240;47.418;0.700;2023-08-06T10:59:48;1.4868388;;1.4421806;;;;;;;
44530;SPS30;30240;47.418;0.700;2023-08-06T11:02:13;1.4868388;;1.4421806;;;;;;;
44530;SPS30;30240;47.418;0.700;2023-08-06T11:04:38;2.0697856;;1.9875323;;;;;;;
44530;SPS30;30240;47.418;0.700;2023-08-06T11:07:04;1.7064075;;1.6505146;;;;;;;
44530;SPS30;30240;47.418;0.700;2023-08-06T11:09:28;1.4850059;;1.423556;;;;;;;
44530;SPS30;30240;47.418;0.700;2023-08-06T11:11:53;1.6393266;;1.5753946;;;;;;;
44530;SPS30;30240;47.418;0.700;2023-08-06T11:14:18;1.6393266;;1.5753946;;;;;;;
44530;SPS30;30240;47.418;0.700;2023-08-06T11:16:43;1.1487203;;1.1127032;;;;;;;
44530;SPS30;30240;47.418;0.700;2023-08-06T11:19:08;1.0793939;;1.0302709;;;;;;;
44530;SPS30;30240;47.418;0.700;2023-08-06T11:21:34;1.410035;;1.3366308;;;;;;;
44530;SPS30;30240;47.418;0.700;2023-08-06T11:23:58;1.6631407;;1.5758512;;;;;;;
44530;SPS30;30240;47.418;0.700;2023-08-06T11:26:23;1.6631407;;1.5758512;;;;;;;
44530;SPS30;30240;47.418;0.700;2023-08-06T11:28:49;1.9108434;;1.811717;;;;;;;
44530;SPS30;30240;47.418;0.700;2023-08-06T11:31:21;1.1343902;;1.0705094;;;;;;;
44530;SPS30;30240;47.418;0.700;2023-08-06T11:33:41;1.5764406;;1.5017852;;;;;;;
44530;SPS30;30240;47.418;0.700;2023-08-06T11:36:04;1.1308115;;1.088769;;;;;;;
44530;SPS30;30240;47.418;0.700;2023-08-06T11:38:29;1.1308115;;1.088769;;;;;;;
44530;SPS30;30240;47.418;0.700;2023-08-06T11:40:54;1.409579;;1.3469912;;;;;;;
44530;SPS30;30240;47.418;0.700;2023-08-06T11:43:19;1.0770471;;1.0498487;;;;;;;
44530;SPS30;30240;47.418;0.700;2023-08-06T11:45:43;1.2663647;;1.2275234;;;;;;;
44530;SPS30;30240;47.418;0.700;2023-08-06T11:48:08;0.7801998;;0.74789685;;;;;;;
44530;SPS30;30240;47.418;0.700;2023-08-06T11:50:36;0.7801998;;0.74789685;;;;;;;
44530;SPS30;30240;47.418;0.700;2023-08-06T11:52:59;1.0432206;;0.99370176;;;;;;;
44530;SPS30;30240;47.418;0.700;2023-08-06T11:55:24;1.2865306;;1.2226312;;;;;;;
44530;SPS30;30240;47.418;0.700;2023-08-06T11:57:48;1.4175736;;1.3568966;;;;;;;
44530;SPS30;30240;47.418;0.700;2023-08-06T12:00:13;1.567047;;1.5039908;;;;;;;
44530;SPS30;30240;47.418;0.700;2023-08-06T12:02:39;1.567047;;1.5039908;;;;;;;
44530;SPS30;30240;47.418;0.700;2023-08-06T12:05:04;1.3828197;;1.3457919;;;;;;;
44530;SPS30;30240;47.418;0.700;2023-08-06T12:07:29;1.1019588;;1.0688843;;;;;;;